Time;durP1;ratioP1;P1;durP2;ratioP2;P2;SDS_P1;SDS_P2;PMS_P1;PMS_P2;Temp;Humidity;BMP_temperature;BMP_pressure;BME280_temperature;BME280_humidity;BME280_pressure;Samples;Min_cycle;Max_cycle;Signal;HPM_P1;HPM_P2
2023/04/05 00:01:25;;;;;;;10.07;6.87;;;;;;;-0.23;100.00;62886.78;5031337;28;20189;-54
2023/04/05 00:03:58;;;;;;;11.20;7.10;;;;;;;-0.24;100.00;62886.22;5031154;28;20190;-54
2023/04/05 00:06:28;;;;;;;9.43;7.17;;;;;;;-0.21;100.00;62889.50;5031223;28;20208;-54
2023/04/05 00:08:57;;;;;;;10.53;7.77;;;;;;;-0.17;100.00;62891.34;5031301;28;20201;-54
2023/04/05 00:11:24;;;;;;;11.23;7.50;;;;;;;-0.22;100.00;62887.84;5030155;28;20681;-59
2023/04/05 00:13:50;;;;;;;10.10;6.93;;;;;;;-0.20;100.00;62890.00;5030807;28;20207;-55
2023/04/05 00:16:16;;;;;;;13.83;8.10;;;;;;;-0.18;100.00;62892.72;5031058;28;20188;-61
2023/04/05 00:18:48;;;;;;;11.27;7.53;;;;;;;-0.14;100.00;62898.97;5030894;28;20192;-57
2023/04/05 00:21:20;;;;;;;9.60;6.50;;;;;;;-0.26;100.00;62884.06;5031191;28;20199;-54
2023/04/05 00:23:47;;;;;;;9.23;6.37;;;;;;;-0.25;100.00;62882.69;5030847;28;20679;-59
2023/04/05 00:26:13;;;;;;;13.43;7.40;;;;;;;-0.25;100.00;62885.16;5030986;28;20205;-54
2023/04/05 00:28:39;;;;;;;10.20;6.77;;;;;;;-0.22;100.00;62887.84;5030844;28;20189;-60
2023/04/05 00:31:05;;;;;;;9.67;6.67;;;;;;;-0.19;100.00;62888.63;5030789;28;20742;-54
2023/04/05 00:33:31;;;;;;;13.80;7.03;;;;;;;-0.14;100.00;62897.06;5013106;28;20308;-53
2023/04/05 00:35:56;;;;;;;10.23;6.83;;;;;;;-0.17;100.00;62893.81;5030700;28;20217;-59
2023/04/05 00:38:22;;;;;;;8.80;6.40;;;;;;;-0.14;100.00;62897.06;5030708;28;20644;-60
2023/04/05 00:40:48;;;;;;;9.07;6.33;;;;;;;-0.18;100.00;62892.19;5013122;28;20220;-53
2023/04/05 00:43:13;;;;;;;7.97;5.77;;;;;;;-0.17;100.00;62893.81;5030643;28;20196;-57
2023/04/05 00:45:38;;;;;;;10.80;6.43;;;;;;;-0.08;100.00;62903.00;5030907;28;20222;-58
2023/04/05 00:48:05;;;;;;;7.57;4.77;;;;;;;-0.01;100.00;62913.06;5030806;28;20217;-57
2023/04/05 00:50:31;;;;;;;8.43;5.77;;;;;;;-0.13;100.00;62900.63;5012888;28;20312;-55
2023/04/05 00:52:57;;;;;;;8.20;5.40;;;;;;;-0.11;100.00;62900.31;5012832;28;20312;-54
2023/04/05 00:55:24;;;;;;;6.80;4.93;;;;;;;-0.10;100.00;62900.84;5030554;28;20248;-54
2023/04/05 00:57:49;;;;;;;6.43;5.17;;;;;;;-0.12;100.00;62896.75;5030629;28;20193;-53
2023/04/05 01:00:15;;;;;;;7.37;4.50;;;;;;;-0.20;100.00;62887.53;5030459;28;20221;-57
2023/04/05 01:02:44;;;;;;;7.90;4.90;;;;;;;-0.12;100.00;62896.19;5030503;28;20193;-58
2023/04/05 01:05:29;;;;;;;8.57;5.43;;;;;;;-0.17;100.00;62895.75;5030862;28;20292;-53
2023/04/05 01:08:07;;;;;;;5.83;4.60;;;;;;;-0.17;100.00;62893.81;5030642;28;20197;-52
2023/04/05 01:10:38;;;;;;;6.60;4.47;;;;;;;-0.12;100.00;62899.22;5030734;28;20221;-53
2023/04/05 01:13:04;;;;;;;5.00;4.10;;;;;;;-0.09;100.00;62900.00;5012868;28;20225;-54
2023/04/05 01:15:31;;;;;;;6.53;4.83;;;;;;;0.06;100.00;62915.69;5037816;22;20229;-57
2023/04/05 01:18:03;;;;;;;6.70;4.43;;;;;;;0.12;100.00;62924.13;5030359;28;20608;-57
2023/04/05 01:20:39;;;;;;;5.07;4.17;;;;;;;0.01;100.00;62915.22;5030620;28;20252;-52
2023/04/05 01:23:26;;;;;;;3.90;3.37;;;;;;;-0.07;100.00;62907.13;5030922;28;20266;-54
2023/04/05 01:26:23;;;;;;;4.50;3.17;;;;;;;0.00;100.00;62912.22;5033946;28;20221;-54
2023/04/05 01:28:56;;;;;;;4.27;3.33;;;;;;;-0.10;100.00;62906.34;5033482;28;20193;-54
2023/04/05 01:31:40;;;;;;;6.27;4.30;;;;;;;-0.09;100.00;62901.94;5033649;28;20247;-57
2023/04/05 01:34:24;;;;;;;6.57;4.20;;;;;;;-0.06;100.00;62905.72;5033577;28;20749;-53
2023/04/05 01:36:54;;;;;;;3.57;3.07;;;;;;;-0.04;100.00;62907.34;5033553;28;20276;-56
2023/04/05 01:39:22;;;;;;;5.53;3.83;;;;;;;-0.20;100.00;62890.56;5033595;28;20231;-60
2023/04/05 01:41:47;;;;;;;5.13;3.17;;;;;;;-0.04;100.00;62907.34;5033773;28;20197;-52
2023/04/05 01:44:13;;;;;;;3.70;3.33;;;;;;;-0.06;100.00;62907.63;5033521;28;20220;-57
2023/04/05 01:46:38;;;;;;;3.60;2.87;;;;;;;-0.11;100.00;62900.31;5033241;28;20263;-54
2023/04/05 01:49:04;;;;;;;4.80;3.60;;;;;;;-0.09;100.00;62902.47;5015479;28;20290;-54
2023/04/05 01:51:30;;;;;;;3.93;3.50;;;;;;;-0.02;100.00;62909.50;5033300;28;20217;-53
2023/04/05 01:53:56;;;;;;;4.97;4.03;;;;;;;-0.06;100.00;62910.66;5033177;28;20219;-53
2023/04/05 01:56:21;;;;;;;5.10;3.33;;;;;;;-0.03;100.00;62911.44;5033189;28;20193;-58
2023/04/05 01:58:46;;;;;;;5.40;3.83;;;;;;;0.00;100.00;62914.69;5033154;28;20193;-59
2023/04/05 02:01:12;;;;;;;3.90;3.17;;;;;;;0.08;100.00;62919.78;5015537;28;20193;-54
2023/04/05 02:03:37;;;;;;;3.97;3.27;;;;;;;0.04;100.00;62916.00;5032802;28;20276;-52
2023/04/05 02:06:03;;;;;;;3.27;2.40;;;;;;;0.00;100.00;62912.22;5033019;28;20650;-57
2023/04/05 02:08:29;;;;;;;3.83;3.03;;;;;;;0.01;100.00;62910.28;5032928;28;20182;-56
2023/04/05 02:10:55;;;;;;;4.53;3.67;;;;;;;0.08;100.00;62920.34;5015220;28;20209;-52
2023/04/05 02:13:21;;;;;;;4.40;3.13;;;;;;;0.07;100.00;62921.19;5032675;28;20209;-54
2023/04/05 02:15:49;;;;;;;4.60;3.40;;;;;;;-0.04;100.00;62907.88;5033192;28;20274;-53
2023/04/05 02:18:20;;;;;;;3.80;3.10;;;;;;;0.04;100.00;62917.94;5033181;28;20201;-54
2023/04/05 02:20:46;;;;;;;4.60;2.90;;;;;;;0.04;100.00;62915.47;5032954;28;20734;-58
2023/04/05 02:23:12;;;;;;;4.80;3.53;;;;;;;0.12;100.00;62924.13;5032776;28;20192;-58
2023/04/05 02:25:37;;;;;;;3.80;3.23;;;;;;;0.14;100.00;62926.84;5032609;28;20260;-53
2023/04/05 02:28:03;;;;;;;3.70;3.00;;;;;;;-0.01;100.00;62913.59;5032540;28;20216;-53
2023/04/05 02:30:28;;;;;;;4.63;3.43;;;;;;;0.09;100.00;62923.88;5032896;28;20217;-52
2023/04/05 02:32:54;;;;;;;4.97;3.40;;;;;;;-0.03;100.00;62908.97;5032497;28;20347;-54
2023/04/05 02:35:20;;;;;;;4.57;3.37;;;;;;;0.04;100.00;62915.47;5031763;28;20292;-54
2023/04/05 02:37:46;;;;;;;3.77;3.10;;;;;;;-0.08;100.00;62903.56;5032638;28;20228;-53
2023/04/05 02:40:13;;;;;;;4.70;3.13;;;;;;;0.04;100.00;62913.53;5031241;28;20753;-52
2023/04/05 02:42:39;;;;;;;3.37;2.70;;;;;;;0.04;100.00;62915.47;5032579;28;20210;-53
2023/04/05 02:45:07;;;;;;;3.70;3.27;;;;;;;0.04;100.00;62916.00;5032452;28;20218;-57
2023/04/05 02:47:33;;;;;;;4.37;3.30;;;;;;;0.08;100.00;62920.34;5032309;28;20198;-57
2023/04/05 02:49:58;;;;;;;5.07;3.53;;;;;;;0.09;100.00;62923.88;5032614;28;20214;-54
2023/04/05 02:52:24;;;;;;;3.63;2.80;;;;;;;-0.02;100.00;62910.03;5032122;28;20297;-54
2023/04/05 02:54:49;;;;;;;5.67;3.93;;;;;;;0.04;100.00;62915.47;5032464;28;20232;-55
2023/04/05 02:57:15;;;;;;;4.63;3.20;;;;;;;0.04;100.00;62915.47;5032654;28;20281;-53
2023/04/05 02:59:41;;;;;;;5.83;3.70;;;;;;;0.07;100.00;62918.69;5032475;28;20221;-55
2023/04/05 03:02:08;;;;;;;6.53;3.77;;;;;;;0.00;100.00;62909.72;5032086;28;20204;-55
2023/04/05 03:04:33;;;;;;;5.20;3.30;;;;;;;0.01;100.00;62910.28;5032212;28;20209;-53
2023/04/05 03:07:03;;;;;;;4.20;3.70;;;;;;;0.04;100.00;62918.50;5031997;28;20221;-55
2023/04/05 03:09:32;;;;;;;4.10;3.60;;;;;;;0.00;100.00;62912.22;5032187;28;20254;-58
2023/04/05 03:12:02;;;;;;;6.43;3.87;;;;;;;0.04;100.00;62915.47;5031765;28;20204;-53
2023/04/05 03:14:31;;;;;;;5.10;3.40;;;;;;;0.08;100.00;62919.78;5032125;28;20698;-58
2023/04/05 03:16:57;;;;;;;4.47;3.90;;;;;;;0.10;100.00;62920.03;5031967;28;20220;-58
2023/04/05 03:19:25;;;;;;;3.43;2.97;;;;;;;0.14;100.00;62929.31;5032145;28;20577;-57
2023/04/05 03:21:51;;;;;;;5.00;3.70;;;;;;;0.08;100.00;62920.34;5031846;28;20234;-60
2023/04/05 03:24:16;;;;;;;4.20;3.40;;;;;;;0.03;100.00;62914.91;5031875;28;20248;-57
2023/04/05 03:26:44;;;;;;;5.20;3.73;;;;;;;0.07;100.00;62916.22;5031694;28;20703;-56
2023/04/05 03:29:10;;;;;;;4.30;3.47;;;;;;;0.17;100.00;62930.06;5031545;28;20221;-55
2023/04/05 03:31:35;;;;;;;6.13;3.90;;;;;;;-0.02;100.00;62912.53;5031474;28;20189;-57
2023/04/05 03:34:00;;;;;;;6.23;4.13;;;;;;;0.12;100.00;62924.66;5013948;28;20222;-58
2023/04/05 03:36:29;;;;;;;3.50;2.93;;;;;;;0.14;100.00;62926.84;5031622;28;20217;-59
2023/04/05 03:38:55;;;;;;;4.47;3.53;;;;;;;0.00;100.00;62911.69;5031514;28;20228;-56
2023/04/05 03:41:20;;;;;;;4.30;3.13;;;;;;;0.09;100.00;62920.88;5031564;28;20197;-54
2023/04/05 03:43:47;;;;;;;8.10;3.87;;;;;;;-0.04;100.00;62910.34;5031669;28;20191;-60
2023/04/05 03:46:13;;;;;;;4.87;3.57;;;;;;;0.05;100.00;62917.09;5031185;28;20191;-60
2023/04/05 03:48:38;;;;;;;4.60;3.73;;;;;;;0.03;100.00;62916.84;5031175;28;20324;-59
2023/04/05 03:51:03;;;;;;;4.13;3.40;;;;;;;0.06;100.00;62920.66;5031317;28;20197;-59
2023/04/05 03:53:29;;;;;;;4.93;4.20;;;;;;;0.03;100.00;62914.38;5031315;28;20576;-58
2023/04/05 03:55:55;;;;;;;4.70;4.07;;;;;;;0.03;100.00;62914.38;5031223;28;20309;-61
2023/04/05 03:58:20;;;;;;;5.33;3.77;;;;;;;0.07;100.00;62916.78;5031187;28;20208;-58
2023/04/05 04:00:46;;;;;;;5.57;3.70;;;;;;;0.08;100.00;62919.78;5013668;28;20209;-60
2023/04/05 04:03:12;;;;;;;6.30;4.67;;;;;;;0.05;100.00;62916.53;5031103;28;20242;-61
2023/04/05 04:05:38;;;;;;;6.73;4.10;;;;;;;0.13;100.00;62923.28;5031260;28;20219;-57
2023/04/05 04:08:08;;;;;;;6.33;4.43;;;;;;;0.09;100.00;62918.38;5013368;28;20288;-55
2023/04/05 04:10:34;;;;;;;5.87;4.23;;;;;;;0.03;100.00;62914.91;5031064;28;20221;-59
2023/04/05 04:13:00;;;;;;;5.10;3.87;;;;;;;0.03;100.00;62911.91;5031065;28;20214;-55
2023/04/05 04:15:25;;;;;;;5.90;4.37;;;;;;;0.12;100.00;62921.66;5031127;28;20221;-56
2023/04/05 04:17:50;;;;;;;5.57;4.20;;;;;;;0.06;100.00;62918.19;5030996;28;20710;-57
2023/04/05 04:20:16;;;;;;;4.30;3.87;;;;;;;-0.01;100.00;62911.13;5030859;28;20227;-55
2023/04/05 04:22:41;;;;;;;5.67;3.80;;;;;;;-0.06;100.00;62905.72;4996946;28;20675;-55
2023/04/05 04:25:09;;;;;;;4.47;3.63;;;;;;;-0.04;100.00;62907.34;5031139;28;20245;-53
2023/04/05 04:27:38;;;;;;;5.30;4.20;;;;;;;0.04;100.00;62917.94;5029601;28;20252;-53
2023/04/05 04:30:09;;;;;;;4.93;3.80;;;;;;;-0.06;100.00;62907.63;5013376;28;20217;-55
2023/04/05 04:32:50;;;;;;;4.10;3.53;;;;;;;-0.02;100.00;62911.97;5030828;28;20218;-59
2023/04/05 04:35:19;;;;;;;6.43;4.60;;;;;;;0.05;100.00;62921.50;5030903;28;20218;-59
2023/04/05 04:37:46;;;;;;;5.37;4.17;;;;;;;-0.07;100.00;62904.63;5030586;28;20202;-58
2023/04/05 04:40:17;;;;;;;5.57;4.10;;;;;;;0.04;100.00;62916.00;5030634;28;20225;-59
2023/04/05 04:42:47;;;;;;;6.13;4.43;;;;;;;0.03;100.00;62916.84;5013239;28;20251;-58
2023/04/05 04:45:16;;;;;;;5.27;3.97;;;;;;;-0.06;100.00;62905.72;5013004;28;20702;-60
2023/04/05 04:47:47;;;;;;;6.27;3.90;;;;;;;0.02;100.00;62911.38;5030618;28;20220;-62
2023/04/05 04:50:13;;;;;;;6.00;4.63;;;;;;;0.10;100.00;62922.50;5029465;28;20209;-55
2023/04/05 04:52:39;;;;;;;5.00;3.73;;;;;;;0.19;100.00;62929.75;5030393;28;20206;-59
2023/04/05 04:55:07;;;;;;;7.67;4.10;;;;;;;0.32;100.00;62945.78;5030771;28;20281;-60
2023/04/05 04:57:32;;;;;;;5.70;4.50;;;;;;;0.25;100.00;62938.72;5030581;28;20191;-61
2023/04/05 04:59:58;;;;;;;5.77;4.23;;;;;;;0.31;100.00;62942.22;5033726;28;20694;-59
2023/04/05 05:02:25;;;;;;;5.43;4.10;;;;;;;0.50;100.00;62965.28;5016190;28;20190;-59
2023/04/05 05:04:50;;;;;;;5.47;3.67;;;;;;;0.38;100.00;62952.28;5033661;28;20220;-55
2023/04/05 05:07:16;;;;;;;5.23;3.40;;;;;;;0.33;100.00;62947.41;5033945;28;20185;-57
2023/04/05 05:09:42;;;;;;;4.07;3.67;;;;;;;0.29;100.00;62945.53;5033686;28;20217;-55
2023/04/05 05:12:07;;;;;;;2.67;2.27;;;;;;;0.13;100.00;62925.19;5033698;28;20196;-60
2023/04/05 05:14:33;;;;;;;3.20;2.23;;;;;;;0.09;100.00;62923.34;5033962;28;20214;-60
2023/04/05 05:16:58;;;;;;;3.63;2.60;;;;;;;0.12;100.00;62924.66;5033669;28;20189;-56
2023/04/05 05:19:24;;;;;;;1.77;1.67;;;;;;;0.12;100.00;62924.13;5015936;28;20206;-54
2023/04/05 05:21:51;;;;;;;4.60;3.17;;;;;;;0.13;100.00;62922.72;5033583;28;20184;-56
2023/04/05 05:24:16;;;;;;;2.97;2.50;;;;;;;0.27;100.00;62940.34;5033526;28;20233;-55
2023/04/05 05:26:42;;;;;;;2.53;2.07;;;;;;;0.16;100.00;62931.47;5033748;28;20224;-54
2023/04/05 05:29:07;;;;;;;5.10;2.73;;;;;;;0.27;100.00;62940.34;5033698;28;20724;-61
2023/04/05 05:31:33;;;;;;;3.23;2.13;;;;;;;0.21;100.00;62936.88;5033511;28;20186;-59
2023/04/05 05:33:58;;;;;;;2.07;1.87;;;;;;;0.34;100.00;62947.94;5033425;28;20623;-59
2023/04/05 05:36:24;;;;;;;1.83;1.63;;;;;;;0.29;100.00;62945.00;5033511;28;20190;-59
2023/04/05 05:38:51;;;;;;;1.90;1.40;;;;;;;0.31;100.00;62947.72;5033311;28;20233;-55
2023/04/05 05:41:17;;;;;;;1.60;1.50;;;;;;;0.22;100.00;62935.50;5033451;28;20194;-53
2023/04/05 05:43:42;;;;;;;2.10;1.60;;;;;;;0.37;100.00;62951.19;5015405;28;20194;-61
2023/04/05 05:46:08;;;;;;;2.33;1.90;;;;;;;0.45;100.00;62959.84;5033335;28;20236;-59
2023/04/05 05:48:33;;;;;;;3.13;1.90;;;;;;;0.45;100.00;62959.84;5033126;28;20200;-58
2023/04/05 05:51:00;;;;;;;1.93;1.53;;;;;;;0.42;100.00;62959.63;5033104;28;20243;-58
2023/04/05 05:53:26;;;;;;;2.70;1.67;;;;;;;0.58;100.00;62971.44;5015194;28;20248;-59
2023/04/05 05:55:51;;;;;;;1.97;1.73;;;;;;;0.54;100.00;62970.16;5033512;28;20637;-60
2023/04/05 05:58:17;;;;;;;3.03;2.17;;;;;;;0.68;100.00;62987.25;5033170;28;20193;-54
2023/04/05 06:00:43;;;;;;;2.23;2.03;;;;;;;0.76;100.00;62993.44;5033277;28;20217;-57
2023/04/05 06:03:09;;;;;;;3.13;2.50;;;;;;;0.83;100.00;63001.00;5033084;28;20653;-57
2023/04/05 06:05:35;;;;;;;2.53;2.20;;;;;;;0.93;100.00;63011.31;5015189;28;20230;-57
2023/04/05 06:08:02;;;;;;;2.20;2.00;;;;;;;0.96;100.00;63014.56;5015424;28;20733;-59
2023/04/05 06:10:28;;;;;;;2.90;2.20;;;;;;;1.01;100.00;63018.03;5014874;28;20245;-59
2023/04/05 06:12:54;;;;;;;2.20;1.90;;;;;;;0.97;100.00;63018.66;5032662;28;20220;-59
2023/04/05 06:15:20;;;;;;;3.63;2.60;;;;;;;1.06;100.00;63025.38;5033010;28;20226;-55
2023/04/05 06:17:45;;;;;;;4.17;2.17;;;;;;;1.09;100.00;63029.16;5032612;28;20247;-56
2023/04/05 06:20:11;;;;;;;3.23;2.40;;;;;;;1.17;100.00;63034.84;5040560;22;20226;-59
2023/04/05 06:22:40;;;;;;;2.10;1.90;;;;;;;1.12;100.00;63031.88;5032800;28;20587;-58
2023/04/05 06:25:07;;;;;;;2.33;2.00;;;;;;;1.19;100.00;63037.53;5032413;28;20225;-55
2023/04/05 06:27:33;;;;;;;5.70;1.80;;;;;;;1.32;100.00;63056.03;5032560;28;20203;-54
2023/04/05 06:30:02;;;;;;;2.43;2.07;;;;;;;1.39;99.69;63061.72;5032889;28;20210;-56
2023/04/05 06:32:27;;;;;;;2.10;1.73;;;;;;;1.32;98.42;63054.09;5032479;28;20267;-54
2023/04/05 06:34:53;;;;;;;1.67;1.57;;;;;;;1.28;99.42;63049.22;5032239;28;20241;-55
2023/04/05 06:37:18;;;;;;;2.73;2.10;;;;;;;1.45;99.11;63067.66;5032626;28;20186;-56
2023/04/05 06:39:44;;;;;;;2.60;1.67;;;;;;;1.46;97.95;63066.81;5032502;28;20214;-59
2023/04/05 06:42:09;;;;;;;2.00;1.80;;;;;;;1.49;98.73;63072.00;5032461;28;20213;-54
2023/04/05 06:44:35;;;;;;;3.83;2.03;;;;;;;1.49;98.58;63072.53;5032438;28;20271;-58
2023/04/05 06:47:00;;;;;;;2.70;1.70;;;;;;;1.53;98.63;63076.34;5032592;28;20225;-60
2023/04/05 06:49:26;;;;;;;4.90;1.83;;;;;;;1.64;98.63;63088.81;5032371;28;20617;-60
2023/04/05 06:51:51;;;;;;;2.00;1.80;;;;;;;1.73;97.49;63098.03;5014513;28;20190;-53
2023/04/05 06:54:17;;;;;;;3.97;1.80;;;;;;;1.68;96.25;63093.13;5032559;28;20298;-57
2023/04/05 06:56:42;;;;;;;2.93;1.83;;;;;;;1.76;97.46;63101.25;5032299;28;20190;-53
2023/04/05 06:59:08;;;;;;;5.40;1.80;;;;;;;1.78;97.39;63102.91;5032324;28;20703;-54
2023/04/05 07:01:33;;;;;;;7.63;2.20;;;;;;;1.88;97.19;63113.75;5032073;28;20185;-60
2023/04/05 07:03:59;;;;;;;2.60;2.40;;;;;;;1.94;95.64;63120.78;5032052;28;20221;-55
2023/04/05 07:06:24;;;;;;;4.50;2.07;;;;;;;2.00;95.41;63127.28;5014501;28;20190;-56
2023/04/05 07:08:50;;;;;;;3.17;1.73;;;;;;;2.06;93.61;63133.28;5031991;28;20205;-60
2023/04/05 07:11:15;;;;;;;1.60;1.50;;;;;;;1.89;92.41;63112.34;5032029;28;20216;-56
2023/04/05 07:13:41;;;;;;;1.60;1.43;;;;;;;1.92;92.56;63116.13;5031638;28;20582;-54
2023/04/05 07:16:06;;;;;;;2.90;2.00;;;;;;;2.07;91.48;63134.91;5031991;28;20194;-53
2023/04/05 07:18:32;;;;;;;1.90;1.70;;;;;;;2.06;92.40;63130.78;5031983;28;20194;-59
2023/04/05 07:21:02;;;;;;;3.23;2.30;;;;;;;2.20;92.67;63148.47;5031384;28;20219;-54
2023/04/05 07:23:28;;;;;;;4.27;1.80;;;;;;;2.21;91.68;63152.03;5031664;28;20336;-54
2023/04/05 07:25:58;;;;;;;2.77;1.77;;;;;;;2.42;92.07;63172.88;5031701;28;20689;-53
2023/04/05 07:28:23;;;;;;;2.57;1.57;;;;;;;2.08;91.31;63137.94;5031743;28;20202;-54
2023/04/05 07:30:49;;;;;;;2.47;1.20;;;;;;;1.90;90.83;63116.44;5031481;28;20213;-59
2023/04/05 07:33:15;;;;;;;1.53;1.40;;;;;;;1.71;90.50;63095.84;5031796;28;20206;-60
2023/04/05 07:35:40;;;;;;;6.33;1.33;;;;;;;1.78;90.83;63100.44;5031830;28;20234;-60
2023/04/05 07:38:06;;;;;;;2.40;1.73;;;;;;;1.73;91.63;63097.47;5031758;28;20197;-57
2023/04/05 07:40:31;;;;;;;2.37;1.70;;;;;;;1.86;92.65;63114.06;5031741;28;20218;-53
2023/04/05 07:42:57;;;;;;;2.20;1.70;;;;;;;1.89;92.00;63114.81;5031764;28;20220;-53
2023/04/05 07:45:22;;;;;;;1.73;1.60;;;;;;;1.88;91.44;63113.75;5031574;28;20214;-58
2023/04/05 07:47:48;;;;;;;2.60;1.80;;;;;;;1.89;92.72;63115.38;5031395;28;20190;-55
2023/04/05 07:50:14;;;;;;;3.47;2.40;;;;;;;2.17;93.17;63145.19;5031517;28;20592;-59
2023/04/05 07:52:40;;;;;;;2.03;1.73;;;;;;;1.98;92.50;63122.66;5031297;28;20218;-54
2023/04/05 07:55:07;;;;;;;2.20;1.73;;;;;;;2.03;92.19;63130.00;5031195;28;20247;-52
2023/04/05 07:57:33;;;;;;;3.00;1.43;;;;;;;1.79;91.09;63103.97;5031384;28;20273;-54
2023/04/05 07:59:58;;;;;;;2.37;1.60;;;;;;;1.52;92.02;63075.78;5031444;28;20253;-59
2023/04/05 08:02:24;;;;;;;2.57;1.73;;;;;;;1.71;92.65;63095.84;5031163;28;20186;-52
2023/04/05 08:04:49;;;;;;;3.17;1.70;;;;;;;1.76;91.40;63101.25;5031047;28;20707;-54
2023/04/05 08:07:15;;;;;;;1.77;1.40;;;;;;;1.76;91.79;63098.25;5031123;28;20182;-56
2023/04/05 08:09:40;;;;;;;2.70;2.13;;;;;;;1.92;92.66;63116.13;5031069;28;20221;-54
2023/04/05 08:12:06;;;;;;;3.10;2.00;;;;;;;2.12;91.74;63137.31;5030961;28;20198;-55
2023/04/05 08:14:32;;;;;;;2.60;1.70;;;;;;;1.99;89.86;63125.69;5031109;28;20296;-54
2023/04/05 08:16:57;;;;;;;3.17;1.77;;;;;;;2.06;90.54;63133.81;5013394;28;20209;-55
2023/04/05 08:19:23;;;;;;;1.33;1.20;;;;;;;1.80;89.34;63102.59;5031089;28;20214;-55
2023/04/05 08:21:48;;;;;;;1.20;1.10;;;;;;;1.73;88.81;63095.00;5029826;28;20194;-54
2023/04/05 08:24:13;;;;;;;3.33;1.20;;;;;;;1.62;88.21;63086.63;5031050;28;20225;-55
2023/04/05 08:26:40;;;;;;;2.17;1.20;;;;;;;1.79;88.02;63106.47;5031043;28;20244;-53
2023/04/05 08:29:06;;;;;;;1.77;1.50;;;;;;;1.73;89.24;63095.00;5030951;28;20221;-54
2023/04/05 08:31:32;;;;;;;1.80;1.40;;;;;;;1.61;89.90;63085.56;5031005;28;20178;-56
2023/04/05 08:33:58;;;;;;;2.67;1.67;;;;;;;1.59;92.17;63083.38;5032785;28;20672;-55
2023/04/05 08:36:23;;;;;;;2.43;1.57;;;;;;;1.62;91.21;63089.13;5034332;28;20196;-53
2023/04/05 08:38:49;;;;;;;1.97;1.60;;;;;;;1.68;92.12;63092.59;5034233;28;20185;-59
2023/04/05 08:41:22;;;;;;;1.47;1.37;;;;;;;1.79;90.88;63101.50;5034531;28;20183;-54
2023/04/05 08:44:01;;;;;;;2.13;1.77;;;;;;;2.06;90.56;63133.81;5034326;28;20182;-53
2023/04/05 08:46:30;;;;;;;1.50;1.40;;;;;;;2.38;91.14;63168.00;5034202;28;20194;-55
2023/04/05 08:48:57;;;;;;;2.30;2.10;;;;;;;2.42;90.91;63169.84;5034220;28;20216;-59
2023/04/05 08:51:23;;;;;;;4.37;2.30;;;;;;;2.21;91.32;63152.56;5034160;28;20196;-57
2023/04/05 08:53:49;;;;;;;3.20;2.30;;;;;;;2.20;92.13;63149.00;5016125;28;20222;-57
2023/04/05 08:56:20;;;;;;;3.90;2.37;;;;;;;2.26;93.44;63154.97;5034006;28;20189;-57
2023/04/05 08:58:52;;;;;;;4.37;2.37;;;;;;;2.50;92.54;63181.03;5033798;28;20194;-57
2023/04/05 09:01:19;;;;;;;2.63;1.90;;;;;;;2.19;91.36;63147.38;5034169;28;20182;-59
2023/04/05 09:03:45;;;;;;;2.20;1.60;;;;;;;2.02;91.78;63129.47;5033741;28;20748;-58
2023/04/05 09:06:12;;;;;;;2.00;1.80;;;;;;;2.07;93.27;63134.91;5034079;28;20682;-57
2023/04/05 09:08:37;;;;;;;2.00;1.37;;;;;;;2.18;92.79;63148.78;5033772;28;20197;-54
2023/04/05 09:11:04;;;;;;;2.00;1.90;;;;;;;2.06;94.96;63135.75;5034106;28;20197;-54
2023/04/05 09:13:30;;;;;;;1.97;1.77;;;;;;;2.33;93.38;63163.09;5033683;28;20245;-55
2023/04/05 09:15:55;;;;;;;2.30;2.00;;;;;;;2.49;95.00;63180.47;5033595;28;20213;-59
2023/04/05 09:18:21;;;;;;;2.27;1.50;;;;;;;2.48;89.21;63178.84;5033939;28;20178;-58
2023/04/05 09:20:47;;;;;;;2.30;1.80;;;;;;;2.07;90.58;63134.34;5033664;28;20218;-59
2023/04/05 09:23:12;;;;;;;3.17;1.80;;;;;;;2.08;90.83;63133.50;5033797;28;20223;-55
2023/04/05 09:25:39;;;;;;;2.47;1.77;;;;;;;2.04;92.92;63129.16;5033507;28;20209;-54
2023/04/05 09:28:08;;;;;;;2.07;1.97;;;;;;;2.15;94.73;63141.09;5015859;28;20235;-55
2023/04/05 09:30:36;;;;;;;2.07;1.87;;;;;;;2.53;94.78;63181.78;5033952;28;20219;-63
2023/04/05 09:33:03;;;;;;;3.90;2.30;;;;;;;2.46;92.65;63176.69;5033264;28;20296;-60
2023/04/05 09:35:32;;;;;;;2.87;2.03;;;;;;;2.59;91.00;63190.78;5033545;28;20232;-58
2023/04/05 09:38:00;;;;;;;2.40;2.17;;;;;;;2.67;89.30;63198.94;5033235;28;20193;-57
2023/04/05 09:40:44;;;;;;;3.27;1.93;;;;;;;2.74;87.96;63207.06;5033447;28;20222;-55
2023/04/05 09:43:11;;;;;;;4.67;3.30;;;;;;;2.85;86.23;63218.47;5033385;28;20201;-57
2023/04/05 09:45:41;;;;;;;3.70;2.40;;;;;;;2.90;85.34;63221.41;5032734;28;20225;-54
2023/04/05 09:48:08;;;;;;;1.73;1.63;;;;;;;2.91;85.05;63225.53;5033283;28;20562;-54
2023/04/05 09:50:34;;;;;;;2.13;1.93;;;;;;;2.74;85.09;63207.06;5033583;28;20762;-60
2023/04/05 09:53:17;;;;;;;1.83;1.73;;;;;;;2.68;85.47;63200.56;5033247;28;20210;-59
2023/04/05 09:55:43;;;;;;;2.00;1.80;;;;;;;2.98;84.80;63232.59;5033206;28;20218;-60
2023/04/05 09:58:12;;;;;;;1.60;1.50;;;;;;;2.95;84.36;63229.34;5033276;28;20193;-58
2023/04/05 10:00:51;;;;;;;1.80;1.70;;;;;;;3.41;85.34;63274.84;5033130;28;20221;-58
2023/04/05 10:03:17;;;;;;;2.37;2.00;;;;;;;3.78;83.08;63318.94;5033074;28;20676;-59
2023/04/05 10:05:43;;;;;;;1.80;1.70;;;;;;;3.32;80.91;63270.06;5015294;28;20318;-53
2023/04/05 10:08:08;;;;;;;2.87;1.70;;;;;;;3.34;80.97;63271.69;5033105;28;20226;-58
2023/04/05 10:10:45;;;;;;;2.27;2.07;;;;;;;3.28;80.88;63263.22;5032933;28;20210;-58
2023/04/05 10:13:10;;;;;;;2.40;1.70;;;;;;;3.79;79.96;63317.53;5032836;28;20221;-59
2023/04/05 10:15:36;;;;;;;2.50;1.77;;;;;;;4.07;81.03;63351.03;5033040;28;20211;-58
2023/04/05 10:18:13;;;;;;;2.90;2.30;;;;;;;3.68;77.12;63306.13;5032730;28;20186;-58
2023/04/05 10:20:40;;;;;;;3.60;2.43;;;;;;;4.09;77.68;63352.66;5033061;28;20263;-54
2023/04/05 10:23:08;;;;;;;2.80;2.30;;;;;;;3.67;77.26;63307.53;5014861;28;20680;-55
2023/04/05 10:25:34;;;;;;;2.30;2.10;;;;;;;3.68;75.97;63306.13;5032682;28;20218;-57
2023/04/05 10:28:05;;;;;;;2.90;2.57;;;;;;;3.50;76.18;63289.06;5032746;28;20241;-58
2023/04/05 10:30:36;;;;;;;7.60;3.03;;;;;;;3.69;75.03;63309.16;5014834;28;20217;-57
2023/04/05 10:33:23;;;;;;;2.33;2.00;;;;;;;3.09;77.33;63242.06;5032513;28;20211;-55
2023/04/05 10:35:53;;;;;;;3.30;2.83;;;;;;;3.26;77.31;63263.53;5032978;28;20322;-54
2023/04/05 10:38:27;;;;;;;2.80;2.47;;;;;;;2.75;75.70;63205.13;5032899;28;20197;-54
2023/04/05 10:41:00;;;;;;;3.50;2.40;;;;;;;2.59;77.84;63188.28;5015080;28;20218;-54
2023/04/05 10:43:26;;;;;;;2.97;2.63;;;;;;;2.70;77.93;63202.19;5032605;28;20261;-54
2023/04/05 10:45:54;;;;;;;2.63;2.27;;;;;;;3.05;77.86;63240.72;5032452;28;20218;-53
2023/04/05 10:48:48;;;;;;;5.20;2.67;;;;;;;3.67;76.07;63304.50;5032537;28;20190;-57
2023/04/05 10:51:14;;;;;;;3.03;2.70;;;;;;;3.93;74.68;63335.25;5014564;28;20205;-54
2023/04/05 10:53:40;;;;;;;5.83;2.70;;;;;;;3.84;74.76;63323.53;5031904;28;20252;-53
2023/04/05 10:56:07;;;;;;;3.43;2.57;;;;;;;4.03;75.95;63343.63;5031460;28;20178;-58
2023/04/05 10:58:39;;;;;;;3.13;2.47;;;;;;;4.23;72.94;63365.38;5032145;28;20656;-57
2023/04/05 11:01:06;;;;;;;2.70;2.50;;;;;;;4.20;71.83;63364.63;5032422;28;20197;-54
2023/04/05 11:03:47;;;;;;;3.53;2.67;;;;;;;3.84;72.88;63326.00;5031943;28;20288;-52
2023/04/05 11:06:19;;;;;;;2.90;2.70;;;;;;;4.54;74.42;63399.09;5032328;28;20190;-58
2023/04/05 11:08:46;;;;;;;3.43;2.80;;;;;;;4.10;70.97;63351.25;5014193;28;20194;-58
2023/04/05 11:11:16;;;;;;;3.10;2.33;;;;;;;4.27;72.41;63374.72;5032128;28;20703;-59
2023/04/05 11:13:51;;;;;;;3.97;3.10;;;;;;;4.32;71.72;63377.66;5032017;28;20704;-55
2023/04/05 11:16:16;;;;;;;3.17;2.87;;;;;;;5.46;73.15;63501.16;5031766;28;20197;-53
2023/04/05 11:18:47;;;;;;;3.40;3.00;;;;;;;5.27;68.28;63482.97;5031925;28;20191;-53
2023/04/05 11:21:21;;;;;;;4.17;2.60;;;;;;;5.56;65.93;63511.50;5031790;28;20203;-61
2023/04/05 11:24:10;;;;;;;3.07;2.43;;;;;;;4.65;67.86;63413.56;5031691;28;20187;-65
2023/04/05 11:26:38;;;;;;;3.03;2.73;;;;;;;4.97;67.42;63448.38;5031976;28;20191;-53
2023/04/05 11:29:04;;;;;;;4.13;3.03;;;;;;;4.72;65.39;63418.69;5031724;28;20237;-60
2023/04/05 11:31:29;;;;;;;2.63;2.13;;;;;;;4.93;65.77;63440.97;5014119;28;20199;-53
2023/04/05 11:34:11;;;;;;;4.40;2.80;;;;;;;4.49;66.89;63390.59;5031493;28;20222;-57
2023/04/05 11:36:46;;;;;;;3.33;2.87;;;;;;;4.28;69.09;63368.84;5031675;28;20162;-52